ADDS TAF Data INFO
IDs: Format: Raw Decoded Include METARs

Data at: 0324 UTC 22 Nov 2017

KMAF 220253Z AUTO 05015KT 10SM CLR 15/M03 A3028 RMK AO2 SLP227 T01501033 53040

KMAF 220048Z 2201/2224 04013G19KT P6SM SKC
  FM220800 02011KT P6SM SKC
  FM221200 36004KT P6SM SKC